createdAt,value
2019-03-04T00:00:51.949Z,8.13
2019-03-04T00:03:21.047Z,14.47
2019-03-04T00:05:49.795Z,8.57
2019-03-04T00:08:18.578Z,7.33
2019-03-04T00:10:47.425Z,5.47
2019-03-04T00:13:16.206Z,7.93
2019-03-04T00:15:45.265Z,7.33
2019-03-04T00:18:14.384Z,9.20
2019-03-04T00:20:43.135Z,7.43
2019-03-04T00:23:12.488Z,7.83
2019-03-04T00:25:41.272Z,9.27
2019-03-04T00:28:10.503Z,7.50
2019-03-04T00:30:39.274Z,10.83
2019-03-04T00:33:08.053Z,9.20
2019-03-04T00:35:37.228Z,6.10
2019-03-04T00:38:05.995Z,9.33
2019-03-04T00:40:35.079Z,11.33
2019-03-04T00:43:03.993Z,7.63
2019-03-04T00:45:32.752Z,7.50
2019-03-04T00:48:01.851Z,7.40
2019-03-04T00:50:30.628Z,14.00
2019-03-04T00:52:59.406Z,10.27
2019-03-04T00:55:28.649Z,7.93
2019-03-04T00:57:57.673Z,9.90
2019-03-04T01:00:26.743Z,5.83
2019-03-04T01:02:55.850Z,7.70
2019-03-04T01:05:25.217Z,7.83
2019-03-04T01:07:54.300Z,15.07
2019-03-04T01:10:23.214Z,7.13
2019-03-04T01:12:52.054Z,6.40
2019-03-04T01:15:22.466Z,9.97
2019-03-04T01:17:51.853Z,8.33
2019-03-04T01:20:20.671Z,8.60
2019-03-04T01:22:49.418Z,7.33
2019-03-04T01:25:18.896Z,12.37
2019-03-04T01:27:47.919Z,5.37
2019-03-04T01:30:19.047Z,8.03
2019-03-04T01:32:48.647Z,9.60
2019-03-04T01:35:17.852Z,5.53
2019-03-04T01:37:46.721Z,6.13
2019-03-04T01:40:17.685Z,5.63
2019-03-04T01:42:46.533Z,8.93
2019-03-04T01:45:15.876Z,7.63
2019-03-04T01:47:45.068Z,7.40
2019-03-04T01:50:15.790Z,10.73
2019-03-04T01:52:45.180Z,9.23
2019-03-04T01:55:14.612Z,9.17
2019-03-04T01:57:43.794Z,10.70
2019-03-04T02:00:14.955Z,8.17
2019-03-04T02:02:43.730Z,9.63
2019-03-04T02:05:13.230Z,8.03
2019-03-04T02:07:42.255Z,5.70
2019-03-04T02:10:13.281Z,8.60
2019-03-04T02:12:42.098Z,12.43
2019-03-04T02:15:12.809Z,7.07
2019-03-04T02:17:41.661Z,9.27
2019-03-04T02:20:11.500Z,8.40
2019-03-04T02:22:40.254Z,5.87
2019-03-04T02:25:11.028Z,12.10
2019-03-04T02:27:40.642Z,4.70
2019-03-04T02:30:13.314Z,7.93
2019-03-04T02:32:42.093Z,8.00
2019-03-04T02:35:11.695Z,6.27
2019-03-04T02:37:40.629Z,5.90
2019-03-04T02:40:09.656Z,11.30
2019-03-04T02:42:38.501Z,8.10
2019-03-04T02:45:09.670Z,6.47
2019-03-04T02:47:38.527Z,8.30
2019-03-04T02:50:08.214Z,6.63
2019-03-04T02:52:37.008Z,4.80
2019-03-04T02:55:06.406Z,6.80
2019-03-04T02:57:35.526Z,5.57
2019-03-04T03:00:04.912Z,7.97
2019-03-04T03:02:33.709Z,10.13
2019-03-04T03:05:02.498Z,6.37
2019-03-04T03:07:31.666Z,8.97
2019-03-04T03:10:00.430Z,6.10
2019-03-04T03:12:29.214Z,5.60
2019-03-04T03:14:57.967Z,7.40
2019-03-04T03:17:27.035Z,7.70
2019-03-04T03:19:55.796Z,6.70
2019-03-04T03:22:24.558Z,4.70
2019-03-04T03:24:53.305Z,4.80
2019-03-04T03:27:22.094Z,9.60
2019-03-04T03:29:52.015Z,6.10
2019-03-04T03:32:21.093Z,7.47
2019-03-04T03:34:49.933Z,6.90
2019-03-04T03:37:18.730Z,6.70
2019-03-04T03:39:47.571Z,4.40
2019-03-04T03:42:18.843Z,5.87
2019-03-04T03:44:47.160Z,7.83
2019-03-04T03:47:16.198Z,7.23
2019-03-04T03:49:45.018Z,3.37
2019-03-04T03:52:14.183Z,4.07
2019-03-04T03:54:42.946Z,7.47
2019-03-04T03:57:12.013Z,5.27
2019-03-04T03:59:40.880Z,3.83
2019-03-04T04:02:09.778Z,5.40
2019-03-04T04:04:39.244Z,8.70
2019-03-04T04:07:08.035Z,3.97
2019-03-04T04:09:36.792Z,3.67
2019-03-04T04:12:05.771Z,3.20
2019-03-04T04:14:34.958Z,4.33
2019-03-04T04:17:03.738Z,4.70
2019-03-04T04:19:32.883Z,6.07
2019-03-04T04:22:02.119Z,5.40
2019-03-04T04:24:30.961Z,5.20
2019-03-04T04:26:59.763Z,4.03
2019-03-04T04:29:28.943Z,5.50
2019-03-04T04:31:57.740Z,2.83
2019-03-04T04:34:26.736Z,4.57
2019-03-04T04:36:55.890Z,6.50
2019-03-04T04:39:24.675Z,7.77
2019-03-04T04:41:53.448Z,6.53
2019-03-04T04:44:22.199Z,6.37
2019-03-04T04:46:58.173Z,6.83
2019-03-04T04:49:29.127Z,2.93
2019-03-04T04:51:57.894Z,3.07
2019-03-04T04:54:26.642Z,4.60
2019-03-04T04:56:55.414Z,6.47
2019-03-04T04:59:24.518Z,6.43
2019-03-04T05:01:53.298Z,4.00
2019-03-04T05:04:22.128Z,3.67
2019-03-04T05:06:50.905Z,6.83
2019-03-04T05:09:19.701Z,4.00
2019-03-04T05:11:48.551Z,2.73
2019-03-04T05:14:17.607Z,4.40
2019-03-04T05:16:46.442Z,2.93
2019-03-04T05:19:15.758Z,4.63
2019-03-04T05:21:44.521Z,3.57
2019-03-04T05:24:13.593Z,6.47
2019-03-04T05:26:42.451Z,5.93
2019-03-04T05:29:11.308Z,3.67
2019-03-04T05:31:40.060Z,4.43
2019-03-04T05:34:09.173Z,3.70
2019-03-04T05:36:38.306Z,2.97
2019-03-04T05:39:09.382Z,5.27
2019-03-04T05:41:38.440Z,4.80
2019-03-04T05:44:07.502Z,5.40
2019-03-04T05:46:36.258Z,2.40
2019-03-04T05:49:05.122Z,3.00
2019-03-04T05:51:33.975Z,3.50
2019-03-04T05:54:03.100Z,2.57
2019-03-04T05:56:31.922Z,3.83
2019-03-04T05:59:00.952Z,4.97
2019-03-04T06:01:31.606Z,4.63
2019-03-04T06:04:03.102Z,2.27
2019-03-04T06:07:06.394Z,2.33
2019-03-04T06:09:35.177Z,2.60
2019-03-04T06:12:04.437Z,2.53
2019-03-04T06:14:33.237Z,2.07
2019-03-04T06:17:02.232Z,2.97
2019-03-04T06:19:30.998Z,3.23
2019-03-04T06:21:59.747Z,3.93
2019-03-04T06:24:28.784Z,2.10
2019-03-04T06:26:57.888Z,2.90
2019-03-04T06:29:26.667Z,2.60
2019-03-04T06:31:55.670Z,3.27
2019-03-04T06:34:24.451Z,2.07
2019-03-04T06:36:53.242Z,3.27
2019-03-04T06:39:22.443Z,2.37
2019-03-04T06:41:51.526Z,2.00
2019-03-04T06:44:20.299Z,2.40
2019-03-04T06:46:49.083Z,4.20
2019-03-04T06:49:17.854Z,3.07
2019-03-04T06:51:48.475Z,2.20
2019-03-04T06:54:45.425Z,2.17
2019-03-04T06:57:28.373Z,1.93
2019-03-04T07:00:41.443Z,3.63
2019-03-04T07:03:20.662Z,3.50
2019-03-04T07:05:50.860Z,3.77
2019-03-04T07:09:13.914Z,3.70
2019-03-04T07:11:46.628Z,3.03
2019-03-04T07:14:15.426Z,3.30
2019-03-04T07:16:44.935Z,2.73
2019-03-04T07:19:18.346Z,4.13
2019-03-04T07:21:47.530Z,2.43
2019-03-04T07:24:20.206Z,2.77
2019-03-04T07:26:49.235Z,3.23
2019-03-04T07:29:18.039Z,3.23
2019-03-04T07:31:46.954Z,2.97
2019-03-04T07:34:15.786Z,5.27
2019-03-04T07:36:44.633Z,5.17
2019-03-04T07:39:15.156Z,3.83
2019-03-04T07:41:45.852Z,3.73
2019-03-04T07:44:14.643Z,2.43
2019-03-04T07:46:43.671Z,3.43
2019-03-04T07:49:12.445Z,4.30
2019-03-04T07:51:41.218Z,4.47
2019-03-04T07:54:10.383Z,2.83
2019-03-04T07:56:39.179Z,4.10
2019-03-04T07:59:07.959Z,2.27
2019-03-04T08:01:36.719Z,4.33
2019-03-04T08:04:05.902Z,3.60
2019-03-04T08:06:34.736Z,3.47
2019-03-04T08:09:30.379Z,3.33
2019-03-04T08:12:35.713Z,5.73
2019-03-04T08:15:05.646Z,4.03
2019-03-04T08:17:34.437Z,2.57
2019-03-04T08:20:03.292Z,3.27
2019-03-04T08:22:32.059Z,2.97
2019-03-04T08:25:00.847Z,4.40
2019-03-04T08:27:29.910Z,2.90
2019-03-04T08:29:59.054Z,3.20
2019-03-04T08:32:27.833Z,5.77
2019-03-04T08:34:56.891Z,5.83
2019-03-04T08:37:25.977Z,2.40
2019-03-04T08:39:55.017Z,3.93
2019-03-04T08:42:24.159Z,5.13
2019-03-04T08:44:52.950Z,2.93
2019-03-04T08:47:21.694Z,3.60
2019-03-04T08:49:50.482Z,3.63
2019-03-04T08:52:19.544Z,5.00
2019-03-04T08:54:48.748Z,6.47
2019-03-04T08:57:17.574Z,2.57
2019-03-04T08:59:46.332Z,1.93
2019-03-04T09:02:15.124Z,3.23
2019-03-04T09:04:44.291Z,2.80
2019-03-04T09:07:13.140Z,1.67
2019-03-04T09:09:41.890Z,1.30
2019-03-04T09:12:10.976Z,1.70
2019-03-04T09:14:40.058Z,1.07
2019-03-04T09:17:10.759Z,1.60
2019-03-04T09:19:39.680Z,1.00
2019-03-04T09:22:08.886Z,2.00
2019-03-04T09:24:37.631Z,2.77
2019-03-04T09:27:07.395Z,1.23
2019-03-04T09:29:36.514Z,1.80
2019-03-04T09:32:05.479Z,2.40
2019-03-04T09:34:34.568Z,1.20
2019-03-04T09:37:03.764Z,1.77
2019-03-04T09:39:32.961Z,5.30
2019-03-04T09:42:27.345Z,2.07
2019-03-04T09:44:56.438Z,1.07
2019-03-04T09:47:25.268Z,2.50
2019-03-04T09:49:54.045Z,2.27
2019-03-04T09:52:23.136Z,1.40
2019-03-04T09:54:51.985Z,1.30
2019-03-04T09:57:20.779Z,1.30
2019-03-04T09:59:49.940Z,1.40
2019-03-04T10:02:26.758Z,2.07
2019-03-04T10:05:43.099Z,0.97
2019-03-04T10:08:46.747Z,2.30
2019-03-04T10:11:48.313Z,1.80
2019-03-04T10:14:51.339Z,1.37
2019-03-04T10:18:07.831Z,1.63
2019-03-04T10:21:01.537Z,1.47
2019-03-04T10:24:00.299Z,4.80
2019-03-04T10:27:15.275Z,1.40
2019-03-04T10:30:31.319Z,1.50
2019-03-04T10:33:24.857Z,1.40
2019-03-04T10:36:09.561Z,1.30
2019-03-04T10:39:23.025Z,5.47
2019-03-04T10:42:23.110Z,1.53
2019-03-04T10:45:11.016Z,1.70
2019-03-04T10:47:39.799Z,1.40
2019-03-04T10:50:09.389Z,1.43
2019-03-04T10:52:38.185Z,3.30
2019-03-04T10:55:08.470Z,4.67
2019-03-04T10:57:37.592Z,1.30
2019-03-04T11:00:14.489Z,1.30
2019-03-04T11:02:43.593Z,4.17
2019-03-04T11:05:12.856Z,3.53
2019-03-04T11:07:41.798Z,1.30
2019-03-04T11:10:11.005Z,2.50
2019-03-04T11:12:39.990Z,1.90
2019-03-04T11:15:21.115Z,1.77
2019-03-04T11:17:50.230Z,4.87
2019-03-04T11:20:18.992Z,3.53
2019-03-04T11:22:47.860Z,1.97
2019-03-04T11:25:18.346Z,2.83
2019-03-04T11:27:47.578Z,3.87
2019-03-04T11:30:17.143Z,2.17
2019-03-04T11:32:46.322Z,5.07
2019-03-04T11:35:15.917Z,1.07
2019-03-04T11:37:45.312Z,1.50
2019-03-04T11:40:23.520Z,2.63
2019-03-04T11:42:52.644Z,4.37
2019-03-04T11:45:21.834Z,5.03
2019-03-04T11:47:50.999Z,3.67
2019-03-04T11:50:20.110Z,1.97
2019-03-04T11:52:48.956Z,4.60
2019-03-04T11:55:18.676Z,4.53
2019-03-04T11:57:47.837Z,1.73
2019-03-04T12:00:26.639Z,3.70
2019-03-04T12:02:55.416Z,2.20
2019-03-04T12:05:24.528Z,5.53
2019-03-04T12:07:53.619Z,2.00
2019-03-04T12:10:22.819Z,1.83
2019-03-04T12:12:51.918Z,1.73
2019-03-04T12:15:20.929Z,2.23
2019-03-04T12:17:49.772Z,1.63
2019-03-04T12:20:18.799Z,0.90
2019-03-04T12:22:47.839Z,1.90
2019-03-04T12:25:16.997Z,1.07
2019-03-04T12:27:46.092Z,2.90
2019-03-04T12:30:17.275Z,2.47
2019-03-04T12:32:46.514Z,2.60
2019-03-04T12:35:15.810Z,2.67
2019-03-04T12:37:44.887Z,1.00
2019-03-04T12:40:14.528Z,3.27
2019-03-04T12:42:43.543Z,2.37
2019-03-04T12:45:14.278Z,2.30
2019-03-04T12:47:43.637Z,1.37
2019-03-04T12:50:18.028Z,3.20
2019-03-04T12:52:46.799Z,2.03
2019-03-04T12:55:15.647Z,2.47
2019-03-04T12:57:44.861Z,2.00
2019-03-04T13:00:17.330Z,1.47
2019-03-04T13:02:46.503Z,4.53
2019-03-04T13:05:15.451Z,1.27
2019-03-04T13:07:44.402Z,2.10
2019-03-04T13:10:14.112Z,3.43
2019-03-04T13:12:43.877Z,3.90
2019-03-04T13:15:15.874Z,1.27
2019-03-04T13:17:45.022Z,4.27
2019-03-04T13:20:14.623Z,3.90
2019-03-04T13:22:43.390Z,1.93
2019-03-04T13:25:12.347Z,2.57
2019-03-04T13:27:41.527Z,3.50
2019-03-04T13:30:13.626Z,1.43
2019-03-04T13:32:42.827Z,1.53
2019-03-04T13:35:13.443Z,4.83
2019-03-04T13:37:42.352Z,3.30
2019-03-04T13:40:12.582Z,1.70
2019-03-04T13:42:41.443Z,4.10
2019-03-04T13:45:12.220Z,4.43
2019-03-04T13:47:41.314Z,2.93
2019-03-04T13:50:13.901Z,1.60
2019-03-04T13:52:43.074Z,3.30
2019-03-04T13:55:12.761Z,7.43
2019-03-04T13:57:41.799Z,4.57
2019-03-04T14:00:13.034Z,2.23
2019-03-04T14:02:42.088Z,5.43
2019-03-04T14:05:11.779Z,1.30
2019-03-04T14:07:40.855Z,1.43
2019-03-04T14:10:11.519Z,2.87
2019-03-04T14:12:40.313Z,1.93
2019-03-04T14:15:13.019Z,1.27
2019-03-04T14:17:42.235Z,1.20
2019-03-04T14:20:11.670Z,1.30
2019-03-04T14:22:40.732Z,1.83
2019-03-04T14:25:10.685Z,1.90
2019-03-04T14:27:39.818Z,1.07
2019-03-04T14:30:11.832Z,1.30
2019-03-04T14:32:40.980Z,1.43
2019-03-04T14:35:10.471Z,5.10
2019-03-04T14:37:39.582Z,3.30
2019-03-04T14:40:09.679Z,1.87
2019-03-04T14:42:38.796Z,1.40
2019-03-04T14:45:09.907Z,1.70
2019-03-04T14:47:39.041Z,2.20
2019-03-04T14:50:10.465Z,1.10
2019-03-04T14:52:39.862Z,1.60
2019-03-04T14:55:11.208Z,1.77
2019-03-04T14:57:40.228Z,1.70
2019-03-04T15:00:15.988Z,1.80
2019-03-04T15:02:44.752Z,2.20
2019-03-04T15:05:14.000Z,3.60
2019-03-04T15:07:42.759Z,2.10
2019-03-04T15:10:12.024Z,3.23
2019-03-04T15:12:41.230Z,5.13
2019-03-04T15:15:10.714Z,1.57
2019-03-04T15:17:39.694Z,2.03
2019-03-04T15:20:10.213Z,2.20
2019-03-04T15:22:39.141Z,2.43
2019-03-04T15:25:10.612Z,1.93
2019-03-04T15:27:39.747Z,2.57
2019-03-04T15:30:10.679Z,1.70
2019-03-04T15:32:39.773Z,7.33
2019-03-04T15:35:08.815Z,1.93
2019-03-04T15:37:37.588Z,2.07
2019-03-04T15:40:07.325Z,4.77
2019-03-04T15:42:36.632Z,2.00
2019-03-04T15:45:05.900Z,2.63
2019-03-04T15:47:36.697Z,4.03
2019-03-04T15:50:05.998Z,2.30
2019-03-04T15:52:35.366Z,2.10
2019-03-04T15:55:04.763Z,3.53
2019-03-04T15:57:33.544Z,4.47
2019-03-04T16:00:02.760Z,4.47
2019-03-04T16:02:31.687Z,5.13
2019-03-04T16:05:00.747Z,4.13
2019-03-04T16:07:29.780Z,4.37
2019-03-04T16:09:58.602Z,1.93
2019-03-04T16:12:27.649Z,4.07
2019-03-04T16:14:56.723Z,4.03
2019-03-04T16:17:25.563Z,6.97
2019-03-04T16:19:54.405Z,3.47
2019-03-04T16:22:23.580Z,2.77
2019-03-04T16:24:52.760Z,3.10
2019-03-04T16:27:21.811Z,5.87
2019-03-04T16:29:50.571Z,3.80
2019-03-04T16:32:19.429Z,3.03
2019-03-04T16:34:48.544Z,4.40
2019-03-04T16:37:17.690Z,2.77
2019-03-04T16:39:46.546Z,3.83
2019-03-04T16:42:15.339Z,2.53
2019-03-04T16:44:44.433Z,5.47
2019-03-04T16:47:13.916Z,4.13
2019-03-04T16:49:42.674Z,2.60
2019-03-04T16:52:11.541Z,4.23
2019-03-04T16:54:40.606Z,3.23
2019-03-04T16:57:13.970Z,6.47
2019-03-04T16:59:43.299Z,4.37
2019-03-04T17:02:12.788Z,3.63
2019-03-04T17:04:41.548Z,4.07
2019-03-04T17:07:10.775Z,3.77
2019-03-04T17:09:39.949Z,4.20
2019-03-04T17:12:09.180Z,6.50
2019-03-04T17:14:38.485Z,4.77
2019-03-04T17:17:12.669Z,7.73
2019-03-04T17:19:42.408Z,5.70
2019-03-04T17:22:11.937Z,5.17
2019-03-04T17:24:40.889Z,5.43
2019-03-04T17:27:10.311Z,3.00
2019-03-04T17:29:39.414Z,10.87
2019-03-04T17:32:08.993Z,5.73
2019-03-04T17:34:37.757Z,6.00
2019-03-04T17:37:06.685Z,7.07
2019-03-04T17:39:35.644Z,13.50
2019-03-04T17:42:05.110Z,9.90
2019-03-04T17:44:34.711Z,4.40
2019-03-04T17:47:03.881Z,4.97
2019-03-04T17:49:32.639Z,13.67
2019-03-04T17:52:01.652Z,9.73
2019-03-04T17:54:30.515Z,21.13
2019-03-04T17:56:59.884Z,12.03
2019-03-04T17:59:28.948Z,16.50
2019-03-04T18:01:57.722Z,7.53
2019-03-04T18:04:26.475Z,7.23
2019-03-04T18:06:55.258Z,8.90
2019-03-04T18:09:24.408Z,8.07
2019-03-04T18:11:53.178Z,9.30
2019-03-04T18:14:22.588Z,10.30
2019-03-04T18:16:51.688Z,7.80
2019-03-04T18:19:20.434Z,8.20
2019-03-04T18:21:49.217Z,9.00
2019-03-04T18:24:17.966Z,6.90
2019-03-04T18:26:57.918Z,5.90
2019-03-04T18:30:05.159Z,6.00
2019-03-04T18:33:06.492Z,6.70
2019-03-04T18:36:15.259Z,6.30
2019-03-04T18:39:01.603Z,4.20
2019-03-04T18:41:48.733Z,9.13
2019-03-04T18:44:34.523Z,6.77
2019-03-04T18:47:42.021Z,9.20
2019-03-04T18:50:10.794Z,6.20
2019-03-04T18:52:39.583Z,9.03
2019-03-04T18:55:08.519Z,3.77
2019-03-04T18:57:37.466Z,5.87
2019-03-04T19:00:12.535Z,6.50
2019-03-04T19:02:41.641Z,5.43
2019-03-04T19:05:11.027Z,10.50
2019-03-04T19:07:40.755Z,7.40
2019-03-04T19:10:10.196Z,10.53
2019-03-04T19:12:38.946Z,8.40
2019-03-04T19:15:08.270Z,8.87
2019-03-04T19:17:37.665Z,7.47
2019-03-04T19:20:09.625Z,6.13
2019-03-04T19:22:38.382Z,10.30
2019-03-04T19:25:07.609Z,4.97
2019-03-04T19:27:36.355Z,5.17
2019-03-04T19:30:06.155Z,4.70
2019-03-04T19:32:34.922Z,10.13
2019-03-04T19:35:03.926Z,9.40
2019-03-04T19:37:33.018Z,5.97
2019-03-04T19:40:01.930Z,8.97
2019-03-04T19:42:30.774Z,6.67
2019-03-04T19:44:59.907Z,7.47
2019-03-04T19:47:29.237Z,6.90
2019-03-04T19:49:58.353Z,4.77
2019-03-04T19:52:27.449Z,7.30
2019-03-04T19:54:56.217Z,9.50
2019-03-04T19:57:24.970Z,8.43
2019-03-04T19:59:54.027Z,5.37
2019-03-04T20:02:22.775Z,9.87
2019-03-04T20:04:51.600Z,7.80
2019-03-04T20:07:20.631Z,4.27
2019-03-04T20:09:49.747Z,4.93
2019-03-04T20:12:18.665Z,5.53
2019-03-04T20:14:48.467Z,8.60
2019-03-04T20:17:17.225Z,7.50
2019-03-04T20:19:45.998Z,6.47
2019-03-04T20:22:15.203Z,5.80
2019-03-04T20:24:44.342Z,5.03
2019-03-04T20:27:13.661Z,8.43
2019-03-04T20:29:42.504Z,8.17
2019-03-04T20:32:11.662Z,9.27
2019-03-04T20:34:40.443Z,5.27
2019-03-04T20:37:09.642Z,10.37
2019-03-04T20:39:38.406Z,3.60
2019-03-04T20:42:07.431Z,7.00
2019-03-04T20:44:36.551Z,7.27
2019-03-04T20:47:05.385Z,7.67
2019-03-04T20:49:34.162Z,8.60
2019-03-04T20:52:02.904Z,7.83
2019-03-04T20:54:31.671Z,7.23
2019-03-04T20:57:00.456Z,9.57
2019-03-04T20:59:29.680Z,5.37
2019-03-04T21:01:58.536Z,7.67
2019-03-04T21:04:27.315Z,7.03
2019-03-04T21:06:56.525Z,4.30
2019-03-04T21:09:25.603Z,13.67
2019-03-04T21:11:54.459Z,6.70
2019-03-04T21:14:23.241Z,7.70
2019-03-04T21:16:52.084Z,8.17
2019-03-04T21:19:20.830Z,6.17
2019-03-04T21:21:49.997Z,12.30
2019-03-04T21:24:18.834Z,11.87
2019-03-04T21:26:49.130Z,5.40
2019-03-04T21:29:30.222Z,11.30
2019-03-04T21:32:09.100Z,8.43
2019-03-04T21:35:07.858Z,10.53
2019-03-04T21:37:39.729Z,7.77
2019-03-04T21:40:13.660Z,7.40
2019-03-04T21:42:58.117Z,5.53
2019-03-04T21:46:09.922Z,6.47
2019-03-04T21:48:48.957Z,5.57
2019-03-04T21:51:38.425Z,9.47
2019-03-04T21:54:08.622Z,11.73
2019-03-04T21:56:44.403Z,6.60
2019-03-04T21:59:13.675Z,9.40
2019-03-04T22:01:47.677Z,8.23
2019-03-04T22:04:16.509Z,13.73
2019-03-04T22:06:45.423Z,4.27
2019-03-04T22:09:14.974Z,9.17
2019-03-04T22:11:44.451Z,8.37
2019-03-04T22:14:13.237Z,5.03
2019-03-04T22:16:42.554Z,11.07
2019-03-04T22:19:11.618Z,8.93
2019-03-04T22:21:40.612Z,7.07
2019-03-04T22:24:09.741Z,6.60
2019-03-04T22:26:39.164Z,5.77
2019-03-04T22:29:08.341Z,6.93
2019-03-04T22:31:37.146Z,9.27
2019-03-04T22:34:06.003Z,6.27
2019-03-04T22:36:35.096Z,6.67
2019-03-04T22:39:05.141Z,5.53
2019-03-04T22:41:33.977Z,6.93
2019-03-04T22:44:02.771Z,6.47
2019-03-04T22:46:31.903Z,6.80
2019-03-04T22:49:00.954Z,8.17
2019-03-04T22:51:29.721Z,9.93
2019-03-04T22:53:58.509Z,6.03
2019-03-04T22:56:27.324Z,9.93
2019-03-04T22:58:56.087Z,6.57
2019-03-04T23:01:47.539Z,9.47
2019-03-04T23:04:28.828Z,9.57
2019-03-04T23:07:12.303Z,5.23
2019-03-04T23:09:54.415Z,4.53
2019-03-04T23:12:27.897Z,8.13
2019-03-04T23:14:56.670Z,4.77
2019-03-04T23:17:25.405Z,8.37
2019-03-04T23:19:54.166Z,5.10
2019-03-04T23:22:22.910Z,6.73
2019-03-04T23:24:52.212Z,8.13
2019-03-04T23:27:20.963Z,6.90
2019-03-04T23:29:49.739Z,4.60
2019-03-04T23:32:18.504Z,5.57
2019-03-04T23:34:47.260Z,9.00
2019-03-04T23:37:16.089Z,8.00
2019-03-04T23:39:45.183Z,8.50
2019-03-04T23:42:14.285Z,4.70
2019-03-04T23:44:43.315Z,4.50
2019-03-04T23:47:12.351Z,10.60
2019-03-04T23:49:41.131Z,4.03
2019-03-04T23:52:09.877Z,6.30
2019-03-04T23:54:38.662Z,8.30
2019-03-04T23:57:07.710Z,5.33
2019-03-04T23:59:36.477Z,7.73
